الصفحة الرئيسية
METAR-TAF:

METAR-TAF

مطار :

مطار عمان المدني

عمان, الأردن

دائرة عرض: 31-59N, خط طول: 035-59E, ارتفاع: 767 متر

مراقبة الطقس الحالي

تاريخ ووقت الإصدار 16 دقيقة قبل الساعة 14:00UTC
ريح 4 عقدة من الشرق/الشمال الشرقي
درجة الحرارة 15°درجة مئوية
الرطوبة 55%
ضغط 1025 hPa
الرؤية: 6000 متر
غيوم قليلة على ارتفاع 3000 قدم

METAR: OJAM 141400Z 06004KT 6000 FEW030 15/06 Q1025 NOSIG

زمن: 16:16 (14:16 UTC)

توقعات

تاريخ ووقت الإصدار 3ساعات و 26 دقيقة قبل الساعة 10:50UTC
التوقعات صالحة من14 الساعة 12 UTC إلى 15 الساعة 18 UTC
ريح 2 عقدةمن اتجاهات متغيرة
الرؤية: 5000 متر
العجاج
مؤقت
من 14 الساعة 12 UTC إلى 14 الساعة 18 UTC
ريح 10 عقدة من الشرق
غيوم قليلة على ارتفاع 3000 قدم
نظرية الاحتمالات 30%
من 15 الساعة 04 UTC إلى 15 الساعة 06 UTC
الرؤية: 4000 متر
غشاء

TAF: OJAM 141050Z 1412/1518 VRB02KT 5000 HZ NSC TEMPO 1412/1418 10010KT FEW030 PROB30 1504/1506 4000 BR

أرصاد الطقس والتوقعات من أكثر من 4000 مطار (تقارير الطقس للمطار METAR والتنبؤ بالطقس بالمطارTAF).

المحطات المتاحة هي النقط الصفراء والحمراء على الخريطة.

حرك المؤشر فوق النقطة لمعرفة اسم المحطة.

ثم انقر لمعرفة أرصاد وتوقعات الطقس.

لتغيير الخارطة: اضغط على الأ